Time;durP1;ratioP1;P1;durP2;ratioP2;P2;SDS_P1;SDS_P2;PMS_P1;PMS_P2;Temp;Humidity;BMP_temperature;BMP_pressure;BME280_temperature;BME280_humidity;BME280_pressure;Samples;Min_cycle;Max_cycle;Signal;HPM_P1;HPM_P2
2022/01/18 05:00:13;;;;;;;37.23;24.90;;;5.70;99.90;;;;;;6119517;23;20434;31
2022/01/18 05:02:41;;;;;;;38.20;24.37;;;5.60;99.90;;;;;;4974802;28;20463;-67
2022/01/18 05:05:10;;;;;;;39.83;22.57;;;5.60;99.90;;;;;;4975615;28;20993;-67
2022/01/18 05:07:39;;;;;;;37.17;24.17;;;5.60;99.90;;;;;;4978239;28;20504;-67
2022/01/18 05:10:06;;;;;;;40.03;25.60;;;5.60;99.90;;;;;;4976454;28;20459;-67
2022/01/18 05:12:42;;;;;;;37.13;22.97;;;5.70;99.90;;;;;;4976022;28;20589;-67
2022/01/18 05:15:32;;;;;;;35.67;22.17;;;5.70;99.90;;;;;;4976506;28;20435;-66
2022/01/18 05:18:55;;;;;;;35.37;23.53;;;5.60;99.90;;;;;;4975711;28;20461;-66
2022/01/18 05:21:12;;;;;;;38.37;23.07;;;5.60;99.90;;;;;;4975087;28;20559;-67
2022/01/18 05:23:38;;;;;;;37.80;23.17;;;5.60;99.90;;;;;;4975533;28;20450;-66
2022/01/18 05:26:05;;;;;;;39.67;24.73;;;5.50;99.90;;;;;;4974966;28;20486;-66
2022/01/18 05:28:32;;;;;;;34.83;23.07;;;5.50;99.90;;;;;;4975545;28;20463;-68
2022/01/18 05:30:59;;;;;;;39.90;24.23;;;5.50;99.90;;;;;;4975982;28;20482;-67
2022/01/18 05:33:27;;;;;;;36.40;22.67;;;5.50;99.90;;;;;;4975623;28;20459;-67
2022/01/18 05:35:54;;;;;;;36.60;23.27;;;5.50;99.90;;;;;;4975932;28;20461;-67
2022/01/18 05:38:21;;;;;;;45.37;25.83;;;5.50;99.90;;;;;;4975622;28;20467;-69
2022/01/18 05:40:47;;;;;;;45.23;26.10;;;5.40;99.90;;;;;;4975383;28;20475;-66
2022/01/18 05:43:14;;;;;;;37.33;24.90;;;5.40;99.90;;;;;;4975354;28;20950;-67
2022/01/18 05:45:41;;;;;;;42.97;24.20;;;5.50;99.90;;;;;;4975762;28;20483;-67
2022/01/18 05:48:08;;;;;;;34.73;23.33;;;5.50;99.90;;;;;;4975558;28;20465;-68
2022/01/18 05:50:36;;;;;;;32.90;21.77;;;5.50;99.90;;;;;;4975560;28;20481;-68
2022/01/18 05:53:03;;;;;;;37.27;23.53;;;5.50;99.90;;;;;;4975508;28;20463;-67
2022/01/18 05:55:29;;;;;;;38.37;24.83;;;5.40;99.90;;;;;;4975162;28;20937;-68
2022/01/18 05:57:56;;;;;;;38.63;24.07;;;5.50;99.90;;;;;;4975512;28;20459;-69
2022/01/18 06:00:24;;;;;;;40.23;23.47;;;5.50;99.90;;;;;;4975009;28;20938;-68
2022/01/18 06:03:01;;;;;;;38.50;22.10;;;5.50;99.90;;;;;;4975521;28;20478;-69
2022/01/18 06:08:15;;;;;;;38.17;23.67;;;5.50;99.90;;;;;;4975331;28;20426;-68
2022/01/18 06:10:42;;;;;;;38.87;22.37;;;5.50;99.90;;;;;;4975408;28;20502;-67
2022/01/18 06:13:09;;;;;;;36.30;23.20;;;5.50;99.90;;;;;;4974726;28;20454;-69
2022/01/18 06:15:36;;;;;;;37.23;24.00;;;5.50;99.90;;;;;;4975454;28;20812;-68
2022/01/18 06:18:04;;;;;;;39.43;24.50;;;5.50;99.90;;;;;;4975790;28;20462;-68
2022/01/18 06:20:31;;;;;;;35.67;22.43;;;5.50;99.90;;;;;;4975451;28;20482;-68
2022/01/18 06:22:57;;;;;;;35.53;23.23;;;5.50;99.90;;;;;;4975271;28;20486;-69
2022/01/18 06:25:27;;;;;;;38.47;24.17;;;5.50;99.90;;;;;;4974964;28;20929;-69
2022/01/18 06:27:54;;;;;;;37.67;23.27;;;5.50;99.90;;;;;;4975077;28;20459;-69
2022/01/18 06:30:21;;;;;;;35.47;22.77;;;5.50;99.90;;;;;;4975138;28;20953;-68
2022/01/18 06:32:48;;;;;;;41.10;22.73;;;5.50;99.90;;;;;;4975655;28;20459;-68
2022/01/18 06:35:17;;;;;;;38.20;24.10;;;5.40;99.90;;;;;;4975067;28;20458;-69
2022/01/18 06:37:43;;;;;;;39.93;25.30;;;5.30;99.90;;;;;;4975805;28;20530;-68
2022/01/18 06:40:11;;;;;;;38.40;23.60;;;5.40;99.90;;;;;;4978507;28;20468;-68
2022/01/18 06:42:40;;;;;;;46.23;25.60;;;5.40;99.90;;;;;;4975085;28;20463;-68
2022/01/18 06:45:08;;;;;;;39.40;22.90;;;5.40;99.90;;;;;;4974810;28;20482;-68
2022/01/18 06:47:34;;;;;;;37.27;23.80;;;5.40;99.90;;;;;;4975270;28;20459;-69
2022/01/18 06:50:02;;;;;;;40.43;24.20;;;5.40;99.90;;;;;;4975629;28;20462;-69
2022/01/18 06:52:28;;;;;;;40.80;23.90;;;5.40;99.90;;;;;;4978873;28;20474;-69
2022/01/18 06:54:55;;;;;;;38.30;23.83;;;5.30;99.90;;;;;;4978491;28;20459;-68
2022/01/18 06:57:22;;;;;;;41.00;24.77;;;5.40;99.90;;;;;;4978510;28;20486;-68
2022/01/18 06:59:50;;;;;;;34.47;23.00;;;5.40;99.90;;;;;;4978354;28;20455;-68
2022/01/18 07:02:17;;;;;;;31.60;22.27;;;5.40;99.90;;;;;;4978091;28;20854;-68
2022/01/18 07:04:43;;;;;;;39.70;23.03;;;5.40;99.90;;;;;;4978131;28;20497;-68
2022/01/18 07:07:10;;;;;;;28.43;20.57;;;5.40;99.90;;;;;;4978236;28;20824;-69
2022/01/18 07:09:37;;;;;;;30.27;19.40;;;5.50;99.90;;;;;;4978059;28;20455;-68
2022/01/18 07:12:08;;;;;;;30.17;20.50;;;5.40;99.90;;;;;;4979671;28;20471;-67
2022/01/18 07:14:35;;;;;;;29.53;19.30;;;5.50;99.90;;;;;;4980029;28;20439;-69
2022/01/18 07:17:03;;;;;;;26.33;17.53;;;5.50;99.90;;;;;;4979186;28;20463;-69
2022/01/18 07:19:32;;;;;;;31.53;18.13;;;5.50;99.90;;;;;;4977739;28;20459;-67
2022/01/18 07:21:58;;;;;;;26.50;18.60;;;5.50;99.90;;;;;;4978445;28;20479;-68
2022/01/18 07:24:39;;;;;;;27.97;17.83;;;5.60;99.90;;;;;;4978139;28;20463;-68
2022/01/18 07:27:07;;;;;;;27.60;17.93;;;5.60;99.90;;;;;;4977961;28;20443;-68
2022/01/18 07:29:34;;;;;;;26.07;18.50;;;5.60;99.90;;;;;;4977813;28;20458;-68
2022/01/18 07:32:02;;;;;;;26.77;17.57;;;5.70;99.90;;;;;;4978872;28;20471;-68
2022/01/18 07:34:31;;;;;;;24.40;17.50;;;5.70;99.90;;;;;;4978552;28;20477;-68
2022/01/18 07:36:58;;;;;;;24.30;17.37;;;5.70;99.90;;;;;;4978654;28;20519;-68
2022/01/18 07:39:25;;;;;;;25.63;18.43;;;5.70;99.90;;;;;;4980517;28;20455;-68
2022/01/18 07:41:51;;;;;;;27.80;17.47;;;5.80;99.90;;;;;;4978039;28;20471;-68
2022/01/18 07:44:18;;;;;;;26.50;17.63;;;5.80;99.90;;;;;;4978027;28;20462;-68
2022/01/18 07:46:45;;;;;;;25.60;19.00;;;5.90;99.90;;;;;;4978163;28;20479;-68
2022/01/18 07:49:13;;;;;;;26.23;19.47;;;5.90;99.90;;;;;;4978330;28;20455;-68
2022/01/18 07:51:40;;;;;;;29.90;21.10;;;6.00;99.90;;;;;;4977933;28;20479;-68
2022/01/18 07:54:07;;;;;;;31.93;21.87;;;5.80;99.90;;;;;;4978115;28;20439;-68
2022/01/18 07:56:34;;;;;;;41.33;25.20;;;5.70;99.90;;;;;;4978146;28;20451;-68
2022/01/18 07:59:01;;;;;;;41.30;24.37;;;5.70;99.90;;;;;;4978216;28;20554;-68
2022/01/18 08:01:28;;;;;;;39.63;24.87;;;5.70;99.90;;;;;;4977681;28;20486;-68
2022/01/18 08:03:54;;;;;;;38.50;23.80;;;5.80;99.90;;;;;;4977444;28;20802;-68
2022/01/18 08:06:22;;;;;;;37.00;24.50;;;5.80;99.90;;;;;;4977760;28;20989;-68
2022/01/18 08:08:49;;;;;;;39.23;24.40;;;5.90;99.90;;;;;;4979429;28;20466;-70
2022/01/18 08:11:17;;;;;;;32.63;22.40;;;6.00;99.90;;;;;;4979081;28;20486;-68
2022/01/18 08:13:47;;;;;;;28.20;19.80;;;6.60;99.90;;;;;;4978004;28;20470;-67
2022/01/18 08:18:58;;;;;;;21.73;16.53;;;8.30;99.90;;;;;;4979306;28;20440;-68
2022/01/18 08:21:27;;;;;;;21.87;17.00;;;9.00;99.90;;;;;;4978035;28;20499;-68
2022/01/18 08:23:54;;;;;;;20.60;16.80;;;9.50;99.90;;;;;;4977605;28;20458;-68
2022/01/18 08:26:22;;;;;;;20.97;16.00;;;9.90;99.90;;;;;;4976941;28;20481;-68
2022/01/18 08:28:49;;;;;;;19.13;15.23;;;9.70;99.90;;;;;;4976864;28;20483;-68
2022/01/18 08:31:15;;;;;;;18.13;14.10;;;9.70;99.90;;;;;;4976630;28;20474;-68
2022/01/18 08:33:42;;;;;;;20.13;14.07;;;9.40;99.90;;;;;;4977235;28;20468;-68
2022/01/18 08:36:09;;;;;;;19.30;14.10;;;9.30;99.90;;;;;;4976540;28;20975;-69
2022/01/18 08:38:39;;;;;;;20.93;15.07;;;9.20;99.90;;;;;;4976931;28;20470;-68
2022/01/18 08:41:06;;;;;;;19.33;14.83;;;8.80;99.90;;;;;;4976519;28;20595;-68
2022/01/18 08:43:36;;;;;;;19.67;15.30;;;8.60;99.90;;;;;;4977126;28;20459;-67
2022/01/18 08:46:04;;;;;;;25.10;15.60;;;8.00;99.90;;;;;;4976556;28;20475;-67
2022/01/18 08:48:31;;;;;;;27.63;16.33;;;7.90;99.90;;;;;;4976486;28;20455;-67
2022/01/18 08:50:58;;;;;;;23.67;16.07;;;7.70;99.90;;;;;;4978043;28;20472;-67
2022/01/18 08:53:25;;;;;;;21.03;15.87;;;7.60;99.90;;;;;;4976292;28;20458;-67
2022/01/18 08:55:54;;;;;;;23.67;16.37;;;7.60;99.90;;;;;;4977824;28;20462;-67
2022/01/18 08:58:22;;;;;;;21.77;16.20;;;7.60;99.90;;;;;;4976702;28;20467;-67
2022/01/18 09:00:48;;;;;;;21.10;16.87;;;7.70;99.90;;;;;;4977027;28;20483;-67
2022/01/18 09:03:15;;;;;;;24.40;17.07;;;7.50;99.90;;;;;;4979865;28;20458;-68
2022/01/18 09:05:44;;;;;;;26.97;17.87;;;7.70;99.90;;;;;;4979992;28;20475;-67
2022/01/18 09:08:12;;;;;;;23.83;19.00;;;7.70;99.90;;;;;;4978096;28;20538;-67
2022/01/18 09:10:39;;;;;;;29.07;21.07;;;8.00;99.90;;;;;;4981923;28;20474;-66
2022/01/18 09:13:07;;;;;;;29.23;20.90;;;8.40;99.90;;;;;;4979399;28;20495;-67
2022/01/18 09:15:34;;;;;;;26.03;20.90;;;9.10;99.90;;;;;;4976211;28;20962;-67
2022/01/18 09:18:01;;;;;;;28.30;20.53;;;10.30;99.90;;;;;;4977075;28;20465;-68
2022/01/18 09:20:27;;;;;;;21.73;18.60;;;11.80;99.90;;;;;;4976978;28;20485;-68
2022/01/18 09:22:54;;;;;;;20.73;16.47;;;12.80;99.90;;;;;;4978297;28;20455;-67
2022/01/18 09:25:23;;;;;;;20.07;17.97;;;12.80;99.90;;;;;;4976156;28;20971;-67
2022/01/18 09:27:51;;;;;;;18.87;14.90;;;12.70;99.90;;;;;;4976247;28;20967;-67
2022/01/18 09:30:19;;;;;;;16.50;14.50;;;12.30;99.90;;;;;;4976304;28;20462;-67
2022/01/18 09:32:48;;;;;;;18.80;15.70;;;12.00;99.90;;;;;;4976515;28;20458;-67
2022/01/18 09:35:16;;;;;;;15.63;12.77;;;11.50;99.90;;;;;;4976366;28;20457;-67
2022/01/18 09:37:43;;;;;;;19.00;14.57;;;11.10;99.90;;;;;;4976136;28;20467;-67
2022/01/18 09:40:14;;;;;;;16.90;13.20;;;10.80;99.90;;;;;;4976917;28;20457;-67
2022/01/18 09:42:43;;;;;;;25.40;14.33;;;10.30;99.90;;;;;;4978669;28;21026;-67
2022/01/18 09:45:14;;;;;;;17.63;14.07;;;10.20;99.90;;;;;;4980671;28;20506;-67
2022/01/18 09:47:44;;;;;;;14.93;11.97;;;9.80;99.90;;;;;;4976856;28;20811;-67
2022/01/18 09:50:14;;;;;;;15.70;12.30;;;9.90;99.90;;;;;;4977015;28;20838;-67
2022/01/18 09:52:41;;;;;;;13.47;11.07;;;10.00;99.90;;;;;;4975866;28;20979;-67
2022/01/18 09:55:09;;;;;;;10.77;9.30;;;10.30;99.90;;;;;;4976212;28;20469;-67
2022/01/18 09:57:36;;;;;;;13.00;8.37;;;10.90;99.90;;;;;;4976303;28;20454;-67
2022/01/18 10:00:04;;;;;;;10.00;9.00;;;11.70;99.90;;;;;;4976297;28;20489;-68
2022/01/18 10:02:31;;;;;;;10.23;9.10;;;12.70;99.90;;;;;;4976553;28;20828;-67
2022/01/18 10:05:00;;;;;;;9.37;8.47;;;14.30;99.90;;;;;;4976049;28;20512;-67
2022/01/18 10:07:34;;;;;;;10.70;9.40;;;15.40;99.90;;;;;;4976179;28;20535;-67
2022/01/18 10:10:01;;;;;;;12.13;9.83;;;16.20;98.70;;;;;;4975736;28;20464;-67
2022/01/18 10:12:28;;;;;;;10.67;9.57;;;16.40;96.80;;;;;;4976061;28;20868;-66
2022/01/18 10:14:57;;;;;;;11.83;10.63;;;16.80;97.00;;;;;;4975749;28;20471;-66
2022/01/18 10:17:31;;;;;;;11.93;10.70;;;17.60;94.70;;;;;;4975626;28;20443;-66
2022/01/18 10:20:05;;;;;;;15.00;11.80;;;16.70;94.50;;;;;;4975202;28;20447;-66
2022/01/18 10:22:40;;;;;;;14.87;10.93;;;15.60;96.70;;;;;;4975490;28;20477;-67
2022/01/18 10:25:15;;;;;;;13.40;11.40;;;15.10;97.70;;;;;;4975543;28;20439;-66
2022/01/18 10:27:41;;;;;;;12.57;11.27;;;14.20;99.40;;;;;;4978921;28;20481;-66
2022/01/18 10:30:15;;;;;;;16.67;11.10;;;13.60;99.90;;;;;;4979376;28;20464;-67
2022/01/18 10:32:43;;;;;;;14.87;11.33;;;13.20;99.90;;;;;;4979721;28;20479;-66
2022/01/18 10:35:11;;;;;;;15.33;10.97;;;12.70;99.90;;;;;;4979859;28;20510;-67
2022/01/18 10:37:42;;;;;;;16.50;12.40;;;12.20;99.90;;;;;;4979836;28;20450;-66
2022/01/18 10:40:14;;;;;;;14.13;11.70;;;12.80;99.90;;;;;;4979870;28;20783;-67
2022/01/18 10:42:46;;;;;;;15.40;12.77;;;13.70;99.90;;;;;;4979348;28;20447;-67
2022/01/18 10:45:14;;;;;;;15.00;12.80;;;14.40;99.90;;;;;;4978991;28;20446;-67
2022/01/18 10:47:50;;;;;;;16.20;12.80;;;14.90;99.90;;;;;;4979028;28;20562;-67
2022/01/18 10:50:20;;;;;;;18.63;13.03;;;14.80;99.90;;;;;;4979331;28;20467;-67
2022/01/18 10:52:47;;;;;;;15.70;13.07;;;14.50;99.90;;;;;;4978665;28;20459;-68
2022/01/18 10:55:19;;;;;;;14.37;12.87;;;14.10;99.90;;;;;;4978969;28;20460;-67
2022/01/18 10:57:47;;;;;;;14.00;11.27;;;14.30;99.90;;;;;;4978808;28;20453;-67
2022/01/18 11:00:16;;;;;;;18.00;12.90;;;14.20;99.90;;;;;;4982587;28;20470;-67
2022/01/18 11:02:45;;;;;;;13.37;11.43;;;14.10;99.90;;;;;;4984894;28;20467;-68
2022/01/18 11:05:15;;;;;;;13.67;11.00;;;14.30;99.90;;;;;;4983882;28;20461;-66
2022/01/18 11:07:44;;;;;;;12.27;10.00;;;14.30;99.90;;;;;;4980181;28;20488;-67
2022/01/18 11:10:13;;;;;;;12.67;10.33;;;13.90;99.90;;;;;;4979514;28;20543;-66
2022/01/18 11:12:49;;;;;;;12.33;9.23;;;13.70;99.90;;;;;;4979227;28;20462;-66
2022/01/18 11:15:20;;;;;;;14.57;9.27;;;13.30;99.90;;;;;;4980421;28;20448;-67
2022/01/18 11:17:52;;;;;;;10.93;7.80;;;12.60;99.90;;;;;;4980504;28;20439;-67
2022/01/18 11:20:20;;;;;;;12.87;10.00;;;12.00;99.90;;;;;;4978340;28;20450;-67
2022/01/18 11:22:51;;;;;;;11.37;8.23;;;11.80;99.90;;;;;;4979625;28;20553;-67
2022/01/18 11:25:19;;;;;;;10.87;9.13;;;11.60;99.90;;;;;;4978662;28;20466;-67
2022/01/18 11:27:50;;;;;;;13.80;6.27;;;10.90;99.90;;;;;;4979247;28;20483;-67
2022/01/18 11:30:18;;;;;;;8.27;6.67;;;10.50;99.90;;;;;;4979059;28;20512;-68
2022/01/18 11:32:45;;;;;;;8.70;5.67;;;9.90;99.90;;;;;;4979954;28;20516;-67
2022/01/18 11:35:15;;;;;;;5.97;5.37;;;9.40;99.90;;;;;;4978934;28;20455;-68
2022/01/18 11:37:51;;;;;;;9.73;6.00;;;9.40;99.90;;;;;;4978776;28;20791;-68
2022/01/18 11:40:20;;;;;;;6.13;5.00;;;9.10;99.90;;;;;;4978601;28;20446;-70
2022/01/18 11:42:53;;;;;;;8.07;5.60;;;9.00;99.90;;;;;;4978506;28;20444;-66
2022/01/18 11:45:31;;;;;;;10.13;6.07;;;8.70;99.90;;;;;;4978857;28;20448;-66
2022/01/18 11:48:03;;;;;;;9.53;5.53;;;8.50;99.90;;;;;;4978417;28;20489;-67
2022/01/18 11:50:33;;;;;;;8.47;6.20;;;8.30;99.90;;;;;;4978900;28;20448;-68
2022/01/18 11:53:45;;;;;;;11.40;5.23;;;8.20;99.90;;;;;;4978222;28;20497;-67
2022/01/18 11:56:33;;;;;;;11.60;6.23;;;8.20;99.90;;;;;;4978199;28;20584;-67
2022/01/18 11:59:14;;;;;;;6.90;5.53;;;8.40;99.90;;;;;;4979082;28;20445;-68
2022/01/18 12:01:50;;;;;;;6.83;4.93;;;8.50;99.90;;;;;;4981276;28;20578;-67
2022/01/18 12:04:54;;;;;;;7.70;5.30;;;8.40;99.90;;;;;;4979999;28;20463;-67
2022/01/18 12:07:50;;;;;;;8.13;4.70;;;8.40;99.90;;;;;;4979105;28;21038;-67
2022/01/18 12:10:47;;;;;;;7.67;5.57;;;8.60;99.90;;;;;;4980096;28;20476;-66
2022/01/18 12:13:29;;;;;;;8.70;4.47;;;8.40;99.90;;;;;;4980565;28;20451;-67
2022/01/18 12:15:58;;;;;;;7.80;3.17;;;8.50;99.90;;;;;;4978797;28;20453;-67
2022/01/18 12:18:26;;;;;;;4.37;3.93;;;8.30;99.90;;;;;;4977966;28;20838;-66
2022/01/18 12:20:54;;;;;;;4.77;3.67;;;8.30;99.90;;;;;;4978065;28;20476;-66
2022/01/18 12:23:22;;;;;;;5.63;3.53;;;8.30;99.90;;;;;;4980167;28;20468;-67
2022/01/18 12:25:57;;;;;;;9.10;3.87;;;8.40;99.90;;;;;;4980046;28;20948;-68
2022/01/18 12:34:50;;;;;;;4.10;3.70;;;8.80;99.90;;;;;;4978189;28;20440;-65
2022/01/18 12:37:43;;;;;;;5.90;3.70;;;8.70;99.90;;;;;;4978542;28;20453;-66
2022/01/18 12:40:21;;;;;;;6.03;4.17;;;8.50;99.90;;;;;;4977651;28;20445;-68
2022/01/18 12:45:51;;;;;;;7.87;3.97;;;8.40;99.90;;;;;;4977535;28;20563;-67
2022/01/18 12:48:18;;;;;;;4.63;4.17;;;8.30;99.90;;;;;;4977390;28;20479;-67
2022/01/18 12:50:48;;;;;;;7.00;4.30;;;8.20;99.90;;;;;;4976932;28;20834;-66
2022/01/18 12:53:16;;;;;;;5.67;4.20;;;8.10;99.90;;;;;;4976651;28;20464;-67
2022/01/18 12:55:46;;;;;;;5.73;4.50;;;8.20;99.90;;;;;;4976797;28;20559;-67
2022/01/18 12:58:16;;;;;;;6.03;4.33;;;8.20;99.90;;;;;;4977431;28;20961;-67
2022/01/18 13:00:45;;;;;;;4.20;3.60;;;8.20;99.90;;;;;;4977486;28;20487;-67
2022/01/18 13:03:19;;;;;;;6.50;4.80;;;8.30;99.90;;;;;;4977036;28;20570;-67
2022/01/18 13:05:47;;;;;;;6.60;4.33;;;8.50;99.90;;;;;;4976584;28;20444;-66
2022/01/18 13:08:16;;;;;;;5.53;4.40;;;8.70;99.90;;;;;;4976439;28;20851;-66
2022/01/18 13:10:45;;;;;;;5.53;3.30;;;8.90;99.90;;;;;;4976149;28;20480;-66
2022/01/18 13:13:14;;;;;;;5.13;3.30;;;9.00;99.90;;;;;;4976106;28;20939;-66
2022/01/18 13:26:51;;;;;;;4.80;4.10;;;9.00;99.90;;;;;;4974053;28;20485;-66
2022/01/18 13:29:20;;;;;;;6.47;3.47;;;9.00;99.90;;;;;;4975627;28;20448;-66
2022/01/18 13:31:59;;;;;;;5.53;4.20;;;8.60;99.90;;;;;;4976017;28;20566;-67
2022/01/18 13:34:31;;;;;;;5.10;3.73;;;8.60;99.90;;;;;;4976389;28;20764;-65
2022/01/18 13:37:00;;;;;;;4.93;4.00;;;8.20;99.90;;;;;;4976636;28;20432;-65
2022/01/18 13:39:31;;;;;;;4.90;3.80;;;8.20;99.90;;;;;;4975873;28;20465;-66
2022/01/18 13:42:00;;;;;;;3.37;3.13;;;8.30;99.90;;;;;;4975752;28;20498;-66
2022/01/18 13:44:27;;;;;;;4.20;3.20;;;8.20;99.90;;;;;;4975961;28;20463;-64
2022/01/18 13:46:54;;;;;;;5.57;3.30;;;8.10;99.90;;;;;;4975890;28;20485;-65
2022/01/18 13:49:24;;;;;;;3.30;2.60;;;8.10;99.90;;;;;;4976779;28;20463;-66
2022/01/18 13:52:04;;;;;;;4.70;3.30;;;8.20;99.90;;;;;;4977003;28;20511;-66
2022/01/18 13:54:44;;;;;;;3.40;2.93;;;8.10;99.90;;;;;;4976800;28;20448;-66
2022/01/18 13:57:11;;;;;;;3.23;2.90;;;8.00;99.90;;;;;;4976693;28;20439;-66
2022/01/18 13:59:39;;;;;;;4.13;2.77;;;7.70;99.90;;;;;;4976523;28;20817;-66
2022/01/18 14:02:14;;;;;;;4.80;2.50;;;7.70;99.90;;;;;;4978604;28;20995;-66
2022/01/18 14:04:41;;;;;;;2.63;2.33;;;7.60;99.90;;;;;;4980404;28;20464;-68
2022/01/18 14:07:10;;;;;;;2.70;2.50;;;7.60;99.90;;;;;;4981574;28;20485;-67
2022/01/18 14:09:37;;;;;;;5.23;3.13;;;7.70;99.90;;;;;;4981575;28;20456;-67
2022/01/18 14:12:05;;;;;;;3.27;2.60;;;7.70;99.90;;;;;;4982124;28;20514;-66
2022/01/18 14:14:34;;;;;;;4.80;2.77;;;7.70;99.90;;;;;;4984861;28;20453;-67
2022/01/18 14:17:03;;;;;;;4.10;2.63;;;7.70;99.90;;;;;;4981467;28;20457;-69
2022/01/18 14:19:32;;;;;;;3.83;2.70;;;7.70;99.90;;;;;;4981680;28;20637;-68
2022/01/18 14:22:01;;;;;;;2.90;2.53;;;7.70;99.90;;;;;;4982136;28;20518;-69
2022/01/18 14:24:36;;;;;;;5.13;3.20;;;7.60;99.90;;;;;;4980950;28;20462;-68
2022/01/18 14:27:05;;;;;;;3.80;3.50;;;7.60;99.90;;;;;;4981215;28;20517;-67
2022/01/18 14:29:51;;;;;;;4.90;4.03;;;7.50;99.90;;;;;;4980679;28;20456;-67
2022/01/18 14:32:26;;;;;;;6.00;3.87;;;7.50;99.90;;;;;;4981256;28;20480;-68
2022/01/18 14:34:57;;;;;;;5.30;3.67;;;7.40;99.90;;;;;;4981415;28;20467;-68
2022/01/18 14:37:45;;;;;;;5.73;4.17;;;7.30;99.90;;;;;;4982948;28;20509;-68
2022/01/18 14:40:20;;;;;;;5.00;4.33;;;7.20;99.90;;;;;;4985798;28;20439;-68
2022/01/18 14:42:50;;;;;;;5.10;3.70;;;7.20;99.90;;;;;;4986670;28;20450;-68
2022/01/18 14:45:32;;;;;;;5.40;4.10;;;7.20;99.90;;;;;;4982159;28;20461;-67
2022/01/18 14:48:00;;;;;;;4.87;3.83;;;7.20;99.90;;;;;;4980940;28;20462;-67
2022/01/18 14:50:27;;;;;;;6.13;5.20;;;7.10;99.90;;;;;;4980216;28;20451;-67
2022/01/18 14:52:55;;;;;;;8.33;4.70;;;7.10;99.90;;;;;;4981557;28;20532;-67
2022/01/18 14:55:26;;;;;;;5.50;4.40;;;7.20;99.90;;;;;;4980581;28;20522;-67
2022/01/18 14:57:54;;;;;;;4.53;3.90;;;7.30;99.90;;;;;;4981973;28;20440;-68
2022/01/18 15:00:22;;;;;;;8.00;4.63;;;7.40;99.90;;;;;;4985480;28;20464;-68
2022/01/18 15:02:50;;;;;;;8.10;4.33;;;7.50;99.90;;;;;;4979994;28;20443;-68
2022/01/18 15:05:17;;;;;;;6.40;4.20;;;7.50;99.90;;;;;;4980881;28;20463;-68
2022/01/18 15:07:45;;;;;;;8.10;4.50;;;7.60;99.90;;;;;;4984159;28;20481;-68
2022/01/18 15:10:14;;;;;;;7.43;5.80;;;7.60;99.90;;;;;;4983211;28;20854;-68
2022/01/18 15:12:46;;;;;;;11.43;6.93;;;7.50;99.90;;;;;;4981912;28;20553;-68
2022/01/18 15:15:14;;;;;;;6.73;5.60;;;7.50;99.90;;;;;;4980219;28;20535;-68
2022/01/18 15:17:42;;;;;;;8.33;5.53;;;7.40;99.90;;;;;;4979159;28;20526;-68
2022/01/18 15:20:09;;;;;;;5.97;4.50;;;7.40;99.90;;;;;;4979192;28;20444;-68
2022/01/18 15:22:36;;;;;;;5.13;4.63;;;7.40;99.90;;;;;;4978889;28;20479;-68
2022/01/18 15:25:03;;;;;;;5.67;3.70;;;7.40;99.90;;;;;;4980175;28;20491;-68
2022/01/18 15:27:31;;;;;;;6.33;4.03;;;7.30;99.90;;;;;;4978408;28;20502;-69
2022/01/18 15:29:59;;;;;;;5.80;3.77;;;7.30;99.90;;;;;;4978536;28;20462;-67
2022/01/18 15:32:26;;;;;;;6.37;3.90;;;7.20;99.90;;;;;;4978796;28;20482;-69
2022/01/18 15:34:53;;;;;;;9.00;3.70;;;7.20;99.90;;;;;;4979600;28;20579;-68
2022/01/18 15:37:20;;;;;;;5.90;4.00;;;7.00;99.90;;;;;;4980629;28;20544;-69
2022/01/18 15:39:49;;;;;;;5.87;4.20;;;7.10;99.90;;;;;;4979302;28;20462;-67
2022/01/18 15:42:17;;;;;;;4.47;3.23;;;7.10;99.90;;;;;;4980113;28;20487;-68
2022/01/18 15:44:43;;;;;;;4.13;3.77;;;7.10;99.90;;;;;;4979364;28;20827;-68
2022/01/18 15:47:13;;;;;;;4.73;3.77;;;7.20;99.90;;;;;;4979669;28;20898;-68
2022/01/18 15:49:40;;;;;;;5.17;3.97;;;7.20;99.90;;;;;;4979500;28;20488;-68
2022/01/18 15:52:08;;;;;;;7.07;4.70;;;7.10;99.90;;;;;;4980881;28;20482;-68
2022/01/18 15:54:34;;;;;;;6.03;4.63;;;7.10;99.90;;;;;;4980048;28;20451;-68
2022/01/18 15:57:02;;;;;;;5.53;4.37;;;7.20;99.90;;;;;;4977627;28;20993;-68
2022/01/18 15:59:29;;;;;;;4.13;3.73;;;7.20;99.90;;;;;;4977552;28;20461;-68
2022/01/18 16:01:55;;;;;;;4.70;4.17;;;7.10;99.90;;;;;;4977504;28;20494;-67
2022/01/18 16:04:23;;;;;;;3.70;3.40;;;7.10;99.90;;;;;;4977310;28;20485;-69
2022/01/18 16:06:50;;;;;;;3.90;3.60;;;7.00;99.90;;;;;;4977344;28;20463;-67
2022/01/18 16:09:17;;;;;;;4.60;3.40;;;7.00;99.90;;;;;;4976985;28;20480;-70
2022/01/18 16:11:43;;;;;;;3.40;3.10;;;7.00;99.90;;;;;;4976930;28;20484;-68
2022/01/18 16:14:10;;;;;;;7.17;3.37;;;6.90;99.90;;;;;;4977534;28;20562;-68
2022/01/18 16:16:39;;;;;;;3.87;3.50;;;6.80;99.90;;;;;;4977251;28;20482;-69
2022/01/18 16:19:07;;;;;;;5.03;3.87;;;6.80;99.90;;;;;;4977617;28;20449;-68
2022/01/18 16:21:36;;;;;;;4.00;3.20;;;7.00;99.90;;;;;;4977078;28;20472;-67
2022/01/18 16:24:03;;;;;;;3.40;3.10;;;7.00;99.90;;;;;;4976829;28;20529;-66
2022/01/18 16:26:31;;;;;;;4.00;3.70;;;7.00;99.90;;;;;;4979226;28;20456;-67
2022/01/18 16:28:58;;;;;;;6.00;3.93;;;7.00;99.90;;;;;;4976624;28;20479;-67
2022/01/18 16:31:25;;;;;;;3.63;3.33;;;7.00;99.90;;;;;;4977036;28;20812;-65
2022/01/18 16:33:52;;;;;;;4.40;3.60;;;6.90;99.90;;;;;;4976824;28;20822;-66
2022/01/18 16:36:19;;;;;;;3.20;2.90;;;6.90;99.90;;;;;;4976966;28;20455;-65
2022/01/18 16:38:47;;;;;;;3.40;3.17;;;6.90;99.90;;;;;;4976601;28;20526;-67
2022/01/18 16:41:14;;;;;;;4.30;3.23;;;6.80;99.90;;;;;;4976811;28;20475;-67
2022/01/18 16:43:41;;;;;;;3.07;2.57;;;6.80;99.90;;;;;;4976488;28;20463;-69
2022/01/18 16:46:08;;;;;;;2.40;2.30;;;6.80;99.90;;;;;;4976766;28;20466;-68
2022/01/18 16:48:34;;;;;;;2.03;1.93;;;6.70;99.90;;;;;;4977011;28;20479;-67
2022/01/18 16:51:01;;;;;;;1.90;1.70;;;6.60;99.90;;;;;;4977093;28;20482;-68
2022/01/18 16:53:28;;;;;;;2.47;2.37;;;6.60;99.90;;;;;;4977331;28;20470;-69
2022/01/18 16:55:56;;;;;;;6.50;2.40;;;6.60;99.90;;;;;;4976428;28;20455;-68
2022/01/18 16:58:23;;;;;;;3.07;2.80;;;6.50;99.90;;;;;;4976808;28;20439;-71
2022/01/18 17:00:50;;;;;;;2.97;2.73;;;6.50;99.90;;;;;;4975947;28;20828;-68
2022/01/18 17:03:17;;;;;;;2.17;2.07;;;6.50;99.90;;;;;;4976751;28;20455;-63
2022/01/18 17:05:44;;;;;;;2.97;2.17;;;6.40;99.90;;;;;;4976374;28;20459;-64
2022/01/18 17:08:12;;;;;;;2.50;2.30;;;6.30;99.90;;;;;;4976628;28;20479;-64
2022/01/18 17:10:39;;;;;;;3.77;2.23;;;6.30;99.90;;;;;;4976317;28;20542;-69
2022/01/18 17:13:07;;;;;;;2.23;2.07;;;6.20;99.90;;;;;;4976110;28;20455;-68
2022/01/18 17:15:34;;;;;;;2.93;2.73;;;6.30;99.90;;;;;;4976372;28;20967;-69
2022/01/18 17:18:01;;;;;;;2.37;2.27;;;6.20;99.90;;;;;;4976872;28;20464;-70
2022/01/18 17:20:28;;;;;;;2.70;2.50;;;6.20;99.90;;;;;;4975813;28;20459;-68
2022/01/18 17:22:55;;;;;;;4.63;3.20;;;6.10;99.90;;;;;;4976122;28;20454;-69
2022/01/18 17:25:22;;;;;;;3.03;2.83;;;6.10;99.90;;;;;;4977067;28;20803;-68
2022/01/18 17:27:50;;;;;;;3.10;2.77;;;6.00;99.90;;;;;;4975539;28;20459;-68
2022/01/18 17:30:18;;;;;;;5.83;3.67;;;6.00;99.90;;;;;;4975533;28;20557;-67
2022/01/18 17:32:45;;;;;;;3.13;2.83;;;6.00;99.90;;;;;;4975614;28;20470;-68
2022/01/18 17:35:12;;;;;;;3.67;3.23;;;6.00;99.90;;;;;;4974507;28;20822;-69
2022/01/18 17:37:39;;;;;;;6.00;3.37;;;5.90;99.90;;;;;;4975599;28;20467;-69
2022/01/18 17:40:07;;;;;;;3.30;3.00;;;6.00;99.90;;;;;;4975888;28;20455;-68
2022/01/18 17:42:34;;;;;;;3.90;3.60;;;5.90;99.90;;;;;;4975703;28;20479;-67
2022/01/18 17:45:01;;;;;;;3.67;3.37;;;6.00;99.90;;;;;;4975390;28;20462;-67
2022/01/18 17:47:29;;;;;;;4.33;3.93;;;6.00;99.90;;;;;;4975549;28;20459;-68
2022/01/18 17:49:56;;;;;;;3.50;3.20;;;6.00;99.90;;;;;;4975274;28;20486;-68
2022/01/18 17:52:22;;;;;;;4.60;3.53;;;6.00;99.90;;;;;;4975384;28;20483;-67
2022/01/18 17:54:49;;;;;;;6.40;3.80;;;5.90;99.90;;;;;;4975484;28;20455;-69
2022/01/18 17:57:16;;;;;;;7.80;3.23;;;5.90;99.90;;;;;;4975351;28;20467;-69
2022/01/18 17:59:43;;;;;;;4.23;3.27;;;6.00;99.90;;;;;;4975323;28;20459;-68
2022/01/18 18:02:09;;;;;;;6.60;3.00;;;5.90;99.90;;;;;;4975352;28;20506;-69
2022/01/18 18:04:39;;;;;;;3.93;3.40;;;6.00;99.90;;;;;;4975398;28;20531;-69
2022/01/18 18:07:06;;;;;;;4.70;4.10;;;6.00;99.90;;;;;;4975251;28;20495;-69
2022/01/18 18:09:33;;;;;;;5.70;3.70;;;6.00;99.90;;;;;;4974754;28;20985;-69
2022/01/18 18:11:59;;;;;;;5.60;3.87;;;6.00;99.90;;;;;;4975341;28;20475;-68
2022/01/18 18:14:28;;;;;;;6.83;4.53;;;6.10;99.90;;;;;;4975807;28;20462;-70
2022/01/18 18:16:55;;;;;;;4.90;4.30;;;6.10;99.90;;;;;;4975734;28;20455;-68
2022/01/18 18:19:22;;;;;;;4.37;3.97;;;6.10;99.90;;;;;;4975362;28;20456;-67
2022/01/18 18:21:50;;;;;;;5.00;3.87;;;6.10;99.90;;;;;;4975082;28;20475;-67